sensor_id;sensor_type;location;lat;lon;timestamp;P1;durP1;ratioP1;P2;durP2;ratioP2
56399;SDS011;42298;53.638;9.876;2022-11-10T00:01:57;13.52;;;4.65;;
56399;SDS011;42298;53.638;9.876;2022-11-10T00:04:22;11.13;;;4.32;;
56399;SDS011;42298;53.638;9.876;2022-11-10T00:06:48;12.30;;;4.50;;
56399;SDS011;42298;53.638;9.876;2022-11-10T00:09:15;11.63;;;4.00;;
56399;SDS011;42298;53.638;9.876;2022-11-10T00:11:40;15.60;;;4.57;;
56399;SDS011;42298;53.638;9.876;2022-11-10T00:14:06;10.75;;;4.57;;
56399;SDS011;42298;53.638;9.876;2022-11-10T00:16:51;13.55;;;4.32;;
56399;SDS011;42298;53.638;9.876;2022-11-10T00:19:26;12.85;;;4.95;;
56399;SDS011;42298;53.638;9.876;2022-11-10T00:22:11;11.02;;;4.47;;
56399;SDS011;42298;53.638;9.876;2022-11-10T00:24:36;13.63;;;4.70;;
56399;SDS011;42298;53.638;9.876;2022-11-10T00:27:02;19.13;;;5.50;;
56399;SDS011;42298;53.638;9.876;2022-11-10T00:29:27;13.15;;;5.30;;
56399;SDS011;42298;53.638;9.876;2022-11-10T00:31:53;14.02;;;5.05;;
56399;SDS011;42298;53.638;9.876;2022-11-10T00:34:18;15.30;;;4.93;;
56399;SDS011;42298;53.638;9.876;2022-11-10T00:36:43;11.57;;;4.80;;
56399;SDS011;42298;53.638;9.876;2022-11-10T00:39:09;15.00;;;5.30;;
56399;SDS011;42298;53.638;9.876;2022-11-10T00:41:35;10.95;;;5.13;;
56399;SDS011;42298;53.638;9.876;2022-11-10T00:44:00;15.82;;;5.30;;
56399;SDS011;42298;53.638;9.876;2022-11-10T00:46:26;13.48;;;6.50;;
56399;SDS011;42298;53.638;9.876;2022-11-10T00:48:52;11.67;;;4.90;;
56399;SDS011;42298;53.638;9.876;2022-11-10T00:51:24;13.80;;;5.33;;
56399;SDS011;42298;53.638;9.876;2022-11-10T00:53:50;13.85;;;5.85;;
56399;SDS011;42298;53.638;9.876;2022-11-10T00:56:16;16.90;;;6.18;;
56399;SDS011;42298;53.638;9.876;2022-11-10T00:58:42;16.70;;;6.10;;
56399;SDS011;42298;53.638;9.876;2022-11-10T01:01:08;16.23;;;6.00;;
56399;SDS011;42298;53.638;9.876;2022-11-10T01:03:34;16.92;;;5.60;;
56399;SDS011;42298;53.638;9.876;2022-11-10T01:06:09;15.23;;;5.63;;
56399;SDS011;42298;53.638;9.876;2022-11-10T01:08:36;13.75;;;5.40;;
56399;SDS011;42298;53.638;9.876;2022-11-10T01:11:06;14.25;;;5.03;;
56399;SDS011;42298;53.638;9.876;2022-11-10T01:13:34;14.97;;;5.27;;
56399;SDS011;42298;53.638;9.876;2022-11-10T01:16:04;15.67;;;5.57;;
56399;SDS011;42298;53.638;9.876;2022-11-10T01:18:36;12.68;;;4.88;;
56399;SDS011;42298;53.638;9.876;2022-11-10T01:21:02;14.53;;;5.33;;
56399;SDS011;42298;53.638;9.876;2022-11-10T01:23:28;13.67;;;5.00;;
56399;SDS011;42298;53.638;9.876;2022-11-10T01:26:01;13.80;;;5.27;;
56399;SDS011;42298;53.638;9.876;2022-11-10T01:28:29;14.57;;;5.27;;
56399;SDS011;42298;53.638;9.876;2022-11-10T01:30:56;14.80;;;5.53;;
56399;SDS011;42298;53.638;9.876;2022-11-10T01:33:24;12.07;;;5.30;;
56399;SDS011;42298;53.638;9.876;2022-11-10T01:35:50;12.68;;;5.18;;
56399;SDS011;42298;53.638;9.876;2022-11-10T01:38:15;13.02;;;5.15;;
56399;SDS011;42298;53.638;9.876;2022-11-10T01:40:41;12.52;;;5.28;;
56399;SDS011;42298;53.638;9.876;2022-11-10T01:43:07;11.47;;;5.27;;
56399;SDS011;42298;53.638;9.876;2022-11-10T01:45:42;15.27;;;5.30;;
56399;SDS011;42298;53.638;9.876;2022-11-10T01:48:16;12.63;;;4.60;;
56399;SDS011;42298;53.638;9.876;2022-11-10T01:50:46;15.53;;;5.07;;
56399;SDS011;42298;53.638;9.876;2022-11-10T01:53:15;11.60;;;4.83;;
56399;SDS011;42298;53.638;9.876;2022-11-10T01:55:44;12.23;;;4.57;;
56399;SDS011;42298;53.638;9.876;2022-11-10T01:58:12;10.20;;;4.40;;
56399;SDS011;42298;53.638;9.876;2022-11-10T02:00:40;12.60;;;4.83;;
56399;SDS011;42298;53.638;9.876;2022-11-10T02:05:56;14.07;;;4.57;;
56399;SDS011;42298;53.638;9.876;2022-11-10T02:08:22;13.53;;;4.67;;
56399;SDS011;42298;53.638;9.876;2022-11-10T02:10:49;14.67;;;4.50;;
56399;SDS011;42298;53.638;9.876;2022-11-10T02:13:14;15.97;;;4.87;;
56399;SDS011;42298;53.638;9.876;2022-11-10T02:15:40;12.87;;;4.53;;
56399;SDS011;42298;53.638;9.876;2022-11-10T02:18:06;12.47;;;4.57;;
56399;SDS011;42298;53.638;9.876;2022-11-10T02:20:31;16.20;;;5.70;;
56399;SDS011;42298;53.638;9.876;2022-11-10T02:22:57;14.37;;;5.07;;
56399;SDS011;42298;53.638;9.876;2022-11-10T02:25:31;12.23;;;4.93;;
56399;SDS011;42298;53.638;9.876;2022-11-10T02:27:57;12.47;;;5.57;;
56399;SDS011;42298;53.638;9.876;2022-11-10T02:30:22;15.93;;;4.43;;
56399;SDS011;42298;53.638;9.876;2022-11-10T02:32:47;10.70;;;4.53;;
56399;SDS011;42298;53.638;9.876;2022-11-10T02:35:13;13.17;;;4.50;;
56399;SDS011;42298;53.638;9.876;2022-11-10T02:37:38;12.27;;;4.77;;
56399;SDS011;42298;53.638;9.876;2022-11-10T02:40:03;11.37;;;4.27;;
56399;SDS011;42298;53.638;9.876;2022-11-10T02:42:29;12.83;;;4.33;;
56399;SDS011;42298;53.638;9.876;2022-11-10T02:44:55;15.50;;;4.70;;
56399;SDS011;42298;53.638;9.876;2022-11-10T02:47:22;10.63;;;4.47;;
56399;SDS011;42298;53.638;9.876;2022-11-10T02:49:48;13.70;;;4.70;;
56399;SDS011;42298;53.638;9.876;2022-11-10T02:52:13;17.80;;;4.77;;
56399;SDS011;42298;53.638;9.876;2022-11-10T02:54:38;11.33;;;4.30;;
56399;SDS011;42298;53.638;9.876;2022-11-10T02:57:04;13.27;;;5.10;;
56399;SDS011;42298;53.638;9.876;2022-11-10T02:59:29;13.30;;;4.83;;
56399;SDS011;42298;53.638;9.876;2022-11-10T03:01:54;17.73;;;4.73;;
56399;SDS011;42298;53.638;9.876;2022-11-10T03:04:20;14.37;;;5.00;;
56399;SDS011;42298;53.638;9.876;2022-11-10T03:06:45;13.87;;;5.07;;
56399;SDS011;42298;53.638;9.876;2022-11-10T03:09:10;15.57;;;5.20;;
56399;SDS011;42298;53.638;9.876;2022-11-10T03:11:36;14.17;;;6.10;;
56399;SDS011;42298;53.638;9.876;2022-11-10T03:14:01;20.33;;;6.10;;
56399;SDS011;42298;53.638;9.876;2022-11-10T03:16:26;14.37;;;6.07;;
56399;SDS011;42298;53.638;9.876;2022-11-10T03:18:52;14.37;;;6.23;;
56399;SDS011;42298;53.638;9.876;2022-11-10T03:21:17;15.53;;;6.33;;
56399;SDS011;42298;53.638;9.876;2022-11-10T03:23:42;13.43;;;5.80;;
56399;SDS011;42298;53.638;9.876;2022-11-10T03:26:08;19.60;;;6.70;;
56399;SDS011;42298;53.638;9.876;2022-11-10T03:28:33;17.33;;;7.53;;
56399;SDS011;42298;53.638;9.876;2022-11-10T03:30:59;19.60;;;6.80;;
56399;SDS011;42298;53.638;9.876;2022-11-10T03:33:24;14.67;;;6.93;;
56399;SDS011;42298;53.638;9.876;2022-11-10T03:35:51;14.77;;;6.60;;
56399;SDS011;42298;53.638;9.876;2022-11-10T03:38:18;16.00;;;6.90;;
56399;SDS011;42298;53.638;9.876;2022-11-10T03:40:44;17.53;;;7.20;;
56399;SDS011;42298;53.638;9.876;2022-11-10T03:43:10;16.10;;;7.53;;
56399;SDS011;42298;53.638;9.876;2022-11-10T03:45:36;17.77;;;7.67;;
56399;SDS011;42298;53.638;9.876;2022-11-10T03:48:01;17.80;;;7.50;;
56399;SDS011;42298;53.638;9.876;2022-11-10T03:50:26;20.23;;;7.73;;
56399;SDS011;42298;53.638;9.876;2022-11-10T03:52:52;16.93;;;8.50;;
56399;SDS011;42298;53.638;9.876;2022-11-10T03:55:17;17.97;;;7.93;;
56399;SDS011;42298;53.638;9.876;2022-11-10T03:57:43;18.10;;;8.07;;
56399;SDS011;42298;53.638;9.876;2022-11-10T04:00:09;17.50;;;8.80;;
56399;SDS011;42298;53.638;9.876;2022-11-10T04:02:36;17.20;;;8.20;;
56399;SDS011;42298;53.638;9.876;2022-11-10T04:05:02;20.93;;;8.73;;
56399;SDS011;42298;53.638;9.876;2022-11-10T04:07:46;16.13;;;8.37;;
56399;SDS011;42298;53.638;9.876;2022-11-10T04:10:34;18.47;;;9.50;;
56399;SDS011;42298;53.638;9.876;2022-11-10T04:13:00;18.57;;;9.93;;
56399;SDS011;42298;53.638;9.876;2022-11-10T04:15:44;21.03;;;10.10;;
56399;SDS011;42298;53.638;9.876;2022-11-10T04:18:10;20.27;;;10.43;;
56399;SDS011;42298;53.638;9.876;2022-11-10T04:20:46;18.07;;;10.63;;
56399;SDS011;42298;53.638;9.876;2022-11-10T04:23:13;16.50;;;10.07;;
56399;SDS011;42298;53.638;9.876;2022-11-10T04:25:52;20.50;;;10.80;;
56399;SDS011;42298;53.638;9.876;2022-11-10T04:28:39;22.20;;;11.50;;
56399;SDS011;42298;53.638;9.876;2022-11-10T04:31:04;22.60;;;11.33;;
56399;SDS011;42298;53.638;9.876;2022-11-10T04:33:30;27.47;;;12.03;;
56399;SDS011;42298;53.638;9.876;2022-11-10T04:35:56;20.60;;;10.83;;
56399;SDS011;42298;53.638;9.876;2022-11-10T04:38:21;22.53;;;12.53;;
56399;SDS011;42298;53.638;9.876;2022-11-10T04:40:47;22.93;;;11.57;;
56399;SDS011;42298;53.638;9.876;2022-11-10T04:43:13;23.50;;;12.73;;
56399;SDS011;42298;53.638;9.876;2022-11-10T04:45:39;23.92;;;12.38;;
56399;SDS011;42298;53.638;9.876;2022-11-10T04:48:04;25.43;;;12.43;;
56399;SDS011;42298;53.638;9.876;2022-11-10T04:50:30;22.27;;;12.63;;
56399;SDS011;42298;53.638;9.876;2022-11-10T04:52:55;25.80;;;11.90;;
56399;SDS011;42298;53.638;9.876;2022-11-10T04:55:21;25.23;;;12.90;;
56399;SDS011;42298;53.638;9.876;2022-11-10T04:57:46;23.27;;;12.83;;
56399;SDS011;42298;53.638;9.876;2022-11-10T05:00:11;22.67;;;12.97;;
56399;SDS011;42298;53.638;9.876;2022-11-10T05:02:37;23.20;;;12.07;;
56399;SDS011;42298;53.638;9.876;2022-11-10T05:05:03;27.63;;;13.13;;
56399;SDS011;42298;53.638;9.876;2022-11-10T05:07:28;20.77;;;12.53;;
56399;SDS011;42298;53.638;9.876;2022-11-10T05:09:54;25.77;;;13.90;;
56399;SDS011;42298;53.638;9.876;2022-11-10T05:12:19;26.60;;;14.63;;
56399;SDS011;42298;53.638;9.876;2022-11-10T05:14:44;24.47;;;13.77;;
56399;SDS011;42298;53.638;9.876;2022-11-10T05:17:10;26.45;;;13.23;;
56399;SDS011;42298;53.638;9.876;2022-11-10T05:19:35;24.98;;;14.75;;
56399;SDS011;42298;53.638;9.876;2022-11-10T05:22:03;24.07;;;14.40;;
56399;SDS011;42298;53.638;9.876;2022-11-10T05:24:30;31.43;;;15.53;;
56399;SDS011;42298;53.638;9.876;2022-11-10T05:26:56;25.73;;;14.83;;
56399;SDS011;42298;53.638;9.876;2022-11-10T05:29:21;29.00;;;14.40;;
56399;SDS011;42298;53.638;9.876;2022-11-10T05:31:46;28.53;;;15.57;;
56399;SDS011;42298;53.638;9.876;2022-11-10T05:34:12;24.73;;;14.27;;
56399;SDS011;42298;53.638;9.876;2022-11-10T05:36:38;23.67;;;14.97;;
56399;SDS011;42298;53.638;9.876;2022-11-10T05:39:03;29.67;;;14.67;;
56399;SDS011;42298;53.638;9.876;2022-11-10T05:41:29;26.00;;;14.07;;
56399;SDS011;42298;53.638;9.876;2022-11-10T05:43:54;24.13;;;14.50;;
56399;SDS011;42298;53.638;9.876;2022-11-10T05:46:19;25.48;;;12.93;;
56399;SDS011;42298;53.638;9.876;2022-11-10T05:48:45;27.73;;;13.90;;
56399;SDS011;42298;53.638;9.876;2022-11-10T05:51:11;24.17;;;14.40;;
56399;SDS011;42298;53.638;9.876;2022-11-10T05:53:37;25.73;;;13.83;;
56399;SDS011;42298;53.638;9.876;2022-11-10T05:56:02;21.77;;;13.83;;
56399;SDS011;42298;53.638;9.876;2022-11-10T05:58:28;25.70;;;15.03;;
56399;SDS011;42298;53.638;9.876;2022-11-10T06:00:53;24.03;;;13.20;;
56399;SDS011;42298;53.638;9.876;2022-11-10T06:03:19;28.20;;;14.00;;
56399;SDS011;42298;53.638;9.876;2022-11-10T06:05:44;25.80;;;13.70;;
56399;SDS011;42298;53.638;9.876;2022-11-10T06:08:10;26.23;;;13.63;;
56399;SDS011;42298;53.638;9.876;2022-11-10T06:10:35;23.63;;;13.17;;
56399;SDS011;42298;53.638;9.876;2022-11-10T06:13:01;25.70;;;13.20;;
56399;SDS011;42298;53.638;9.876;2022-11-10T06:15:28;22.87;;;12.80;;
56399;SDS011;42298;53.638;9.876;2022-11-10T06:17:54;28.98;;;14.60;;
56399;SDS011;42298;53.638;9.876;2022-11-10T06:20:20;24.83;;;13.80;;
56399;SDS011;42298;53.638;9.876;2022-11-10T06:22:59;25.30;;;13.27;;
56399;SDS011;42298;53.638;9.876;2022-11-10T06:25:25;21.30;;;12.53;;
56399;SDS011;42298;53.638;9.876;2022-11-10T06:27:51;30.07;;;13.73;;
56399;SDS011;42298;53.638;9.876;2022-11-10T06:30:17;28.63;;;13.70;;
56399;SDS011;42298;53.638;9.876;2022-11-10T06:32:43;25.77;;;12.83;;
56399;SDS011;42298;53.638;9.876;2022-11-10T06:35:09;28.47;;;12.83;;
56399;SDS011;42298;53.638;9.876;2022-11-10T06:37:34;22.33;;;12.40;;
56399;SDS011;42298;53.638;9.876;2022-11-10T06:40:00;27.40;;;12.77;;
56399;SDS011;42298;53.638;9.876;2022-11-10T06:42:25;28.70;;;12.87;;
56399;SDS011;42298;53.638;9.876;2022-11-10T06:44:50;26.33;;;13.20;;
56399;SDS011;42298;53.638;9.876;2022-11-10T06:47:16;22.13;;;10.87;;
56399;SDS011;42298;53.638;9.876;2022-11-10T06:49:42;24.13;;;12.00;;
56399;SDS011;42298;53.638;9.876;2022-11-10T06:52:07;21.57;;;10.57;;
56399;SDS011;42298;53.638;9.876;2022-11-10T06:54:32;25.00;;;10.27;;
56399;SDS011;42298;53.638;9.876;2022-11-10T06:56:57;20.33;;;10.30;;
56399;SDS011;42298;53.638;9.876;2022-11-10T06:59:23;22.93;;;10.50;;
56399;SDS011;42298;53.638;9.876;2022-11-10T07:01:48;24.50;;;10.63;;
56399;SDS011;42298;53.638;9.876;2022-11-10T07:04:14;20.40;;;11.53;;
56399;SDS011;42298;53.638;9.876;2022-11-10T07:06:40;25.07;;;10.63;;
56399;SDS011;42298;53.638;9.876;2022-11-10T07:09:06;22.60;;;10.50;;
56399;SDS011;42298;53.638;9.876;2022-11-10T07:11:32;21.40;;;10.67;;
56399;SDS011;42298;53.638;9.876;2022-11-10T07:13:57;26.83;;;11.40;;
56399;SDS011;42298;53.638;9.876;2022-11-10T07:16:22;26.27;;;11.87;;
56399;SDS011;42298;53.638;9.876;2022-11-10T07:18:48;27.03;;;11.10;;
56399;SDS011;42298;53.638;9.876;2022-11-10T07:21:13;29.17;;;12.57;;
56399;SDS011;42298;53.638;9.876;2022-11-10T07:23:38;23.23;;;11.97;;
56399;SDS011;42298;53.638;9.876;2022-11-10T07:26:04;25.17;;;11.70;;
56399;SDS011;42298;53.638;9.876;2022-11-10T07:28:29;25.83;;;11.53;;
56399;SDS011;42298;53.638;9.876;2022-11-10T07:30:54;23.33;;;12.37;;
56399;SDS011;42298;53.638;9.876;2022-11-10T07:33:20;30.90;;;13.40;;
56399;SDS011;42298;53.638;9.876;2022-11-10T07:35:49;27.23;;;13.40;;
56399;SDS011;42298;53.638;9.876;2022-11-10T07:38:19;23.40;;;13.53;;
56399;SDS011;42298;53.638;9.876;2022-11-10T07:40:44;25.33;;;13.50;;
56399;SDS011;42298;53.638;9.876;2022-11-10T07:43:09;24.97;;;14.33;;
56399;SDS011;42298;53.638;9.876;2022-11-10T07:45:35;21.50;;;13.73;;
56399;SDS011;42298;53.638;9.876;2022-11-10T07:48:04;25.13;;;15.67;;
56399;SDS011;42298;53.638;9.876;2022-11-10T07:50:30;32.60;;;16.77;;
56399;SDS011;42298;53.638;9.876;2022-11-10T07:53:03;32.53;;;15.97;;
56399;SDS011;42298;53.638;9.876;2022-11-10T07:55:30;27.55;;;15.30;;
56399;SDS011;42298;53.638;9.876;2022-11-10T07:57:55;28.23;;;17.53;;
56399;SDS011;42298;53.638;9.876;2022-11-10T08:00:22;30.23;;;16.67;;
56399;SDS011;42298;53.638;9.876;2022-11-10T08:02:49;29.13;;;17.20;;
56399;SDS011;42298;53.638;9.876;2022-11-10T08:05:15;28.85;;;16.98;;
56399;SDS011;42298;53.638;9.876;2022-11-10T08:07:40;29.00;;;17.27;;
56399;SDS011;42298;53.638;9.876;2022-11-10T08:10:05;29.98;;;17.40;;
56399;SDS011;42298;53.638;9.876;2022-11-10T08:12:31;30.97;;;17.17;;
56399;SDS011;42298;53.638;9.876;2022-11-10T08:14:56;30.50;;;16.70;;
56399;SDS011;42298;53.638;9.876;2022-11-10T08:17:22;28.77;;;15.73;;
56399;SDS011;42298;53.638;9.876;2022-11-10T08:19:47;29.17;;;18.10;;
56399;SDS011;42298;53.638;9.876;2022-11-10T08:22:12;32.00;;;18.23;;
56399;SDS011;42298;53.638;9.876;2022-11-10T08:24:38;32.10;;;17.02;;
56399;SDS011;42298;53.638;9.876;2022-11-10T08:27:03;26.83;;;16.75;;
56399;SDS011;42298;53.638;9.876;2022-11-10T08:29:28;33.60;;;17.63;;
56399;SDS011;42298;53.638;9.876;2022-11-10T08:31:54;32.47;;;17.42;;
56399;SDS011;42298;53.638;9.876;2022-11-10T08:34:19;30.35;;;17.45;;
56399;SDS011;42298;53.638;9.876;2022-11-10T08:36:46;30.77;;;17.00;;
56399;SDS011;42298;53.638;9.876;2022-11-10T08:39:11;27.73;;;16.80;;
56399;SDS011;42298;53.638;9.876;2022-11-10T08:41:36;28.55;;;17.08;;
56399;SDS011;42298;53.638;9.876;2022-11-10T08:44:02;27.25;;;17.02;;
56399;SDS011;42298;53.638;9.876;2022-11-10T08:46:27;30.67;;;16.55;;
56399;SDS011;42298;53.638;9.876;2022-11-10T08:48:53;33.03;;;19.10;;
56399;SDS011;42298;53.638;9.876;2022-11-10T08:51:18;29.95;;;17.20;;
56399;SDS011;42298;53.638;9.876;2022-11-10T08:53:43;34.30;;;18.58;;
56399;SDS011;42298;53.638;9.876;2022-11-10T08:56:08;26.83;;;16.27;;
56399;SDS011;42298;53.638;9.876;2022-11-10T08:58:34;36.45;;;18.25;;
56399;SDS011;42298;53.638;9.876;2022-11-10T09:01:01;31.10;;;16.73;;
56399;SDS011;42298;53.638;9.876;2022-11-10T09:03:32;31.75;;;18.52;;
56399;SDS011;42298;53.638;9.876;2022-11-10T09:05:57;32.10;;;17.55;;
56399;SDS011;42298;53.638;9.876;2022-11-10T09:08:22;32.20;;;18.13;;
56399;SDS011;42298;53.638;9.876;2022-11-10T09:10:47;28.55;;;16.60;;
56399;SDS011;42298;53.638;9.876;2022-11-10T09:13:16;34.08;;;17.42;;
56399;SDS011;42298;53.638;9.876;2022-11-10T09:15:42;33.45;;;17.27;;
56399;SDS011;42298;53.638;9.876;2022-11-10T09:18:09;28.48;;;17.17;;
56399;SDS011;42298;53.638;9.876;2022-11-10T09:20:36;29.85;;;18.65;;
56399;SDS011;42298;53.638;9.876;2022-11-10T09:23:03;29.75;;;16.58;;
56399;SDS011;42298;53.638;9.876;2022-11-10T09:25:33;26.85;;;16.67;;
56399;SDS011;42298;53.638;9.876;2022-11-10T09:28:00;30.77;;;17.30;;
56399;SDS011;42298;53.638;9.876;2022-11-10T09:30:25;31.92;;;18.02;;
56399;SDS011;42298;53.638;9.876;2022-11-10T09:32:58;25.40;;;16.38;;
56399;SDS011;42298;53.638;9.876;2022-11-10T09:35:24;29.38;;;16.17;;
56399;SDS011;42298;53.638;9.876;2022-11-10T09:37:50;27.80;;;16.00;;
56399;SDS011;42298;53.638;9.876;2022-11-10T09:40:18;26.13;;;15.50;;
56399;SDS011;42298;53.638;9.876;2022-11-10T09:42:47;28.90;;;16.30;;
56399;SDS011;42298;53.638;9.876;2022-11-10T09:47:50;26.67;;;15.90;;
56399;SDS011;42298;53.638;9.876;2022-11-10T09:50:28;23.38;;;14.45;;
56399;SDS011;42298;53.638;9.876;2022-11-10T09:53:00;22.35;;;14.32;;
56399;SDS011;42298;53.638;9.876;2022-11-10T09:55:33;26.88;;;14.70;;
56399;SDS011;42298;53.638;9.876;2022-11-10T09:58:07;25.25;;;14.07;;
56399;SDS011;42298;53.638;9.876;2022-11-10T10:00:36;27.10;;;14.13;;
56399;SDS011;42298;53.638;9.876;2022-11-10T10:03:02;27.02;;;15.18;;
56399;SDS011;42298;53.638;9.876;2022-11-10T10:08:29;25.48;;;13.90;;
56399;SDS011;42298;53.638;9.876;2022-11-10T10:14:34;23.92;;;14.07;;
56399;SDS011;42298;53.638;9.876;2022-11-10T10:17:10;26.90;;;14.38;;
56399;SDS011;42298;53.638;9.876;2022-11-10T10:19:51;20.85;;;12.18;;
56399;SDS011;42298;53.638;9.876;2022-11-10T10:22:25;22.95;;;11.13;;
56399;SDS011;42298;53.638;9.876;2022-11-10T10:24:55;26.33;;;12.77;;
56399;SDS011;42298;53.638;9.876;2022-11-10T10:27:26;25.35;;;13.32;;
56399;SDS011;42298;53.638;9.876;2022-11-10T10:29:53;24.55;;;13.77;;
56399;SDS011;42298;53.638;9.876;2022-11-10T10:32:18;27.67;;;13.80;;
56399;SDS011;42298;53.638;9.876;2022-11-10T10:34:46;29.52;;;14.00;;
56399;SDS011;42298;53.638;9.876;2022-11-10T10:37:15;22.98;;;13.43;;
56399;SDS011;42298;53.638;9.876;2022-11-10T10:39:45;27.45;;;12.95;;
56399;SDS011;42298;53.638;9.876;2022-11-10T10:42:21;23.63;;;12.02;;
56399;SDS011;42298;53.638;9.876;2022-11-10T10:47:42;23.52;;;12.40;;
56399;SDS011;42298;53.638;9.876;2022-11-10T10:50:25;24.48;;;11.68;;
56399;SDS011;42298;53.638;9.876;2022-11-10T10:53:13;23.52;;;11.50;;
56399;SDS011;42298;53.638;9.876;2022-11-10T10:55:55;21.40;;;10.98;;
56399;SDS011;42298;53.638;9.876;2022-11-10T10:58:27;25.25;;;11.32;;
56399;SDS011;42298;53.638;9.876;2022-11-10T11:01:01;21.65;;;11.23;;
56399;SDS011;42298;53.638;9.876;2022-11-10T11:03:36;22.83;;;10.18;;
56399;SDS011;42298;53.638;9.876;2022-11-10T11:08:38;19.80;;;10.55;;
56399;SDS011;42298;53.638;9.876;2022-11-10T11:11:09;24.48;;;11.40;;
56399;SDS011;42298;53.638;9.876;2022-11-10T11:13:35;24.98;;;10.85;;
56399;SDS011;42298;53.638;9.876;2022-11-10T11:16:02;25.38;;;11.73;;
56399;SDS011;42298;53.638;9.876;2022-11-10T11:18:32;20.50;;;10.48;;
56399;SDS011;42298;53.638;9.876;2022-11-10T11:23:53;24.55;;;11.48;;
56399;SDS011;42298;53.638;9.876;2022-11-10T11:29:07;22.13;;;9.40;;
56399;SDS011;42298;53.638;9.876;2022-11-10T11:31:57;24.88;;;10.32;;
56399;SDS011;42298;53.638;9.876;2022-11-10T11:40:26;20.23;;;9.68;;
56399;SDS011;42298;53.638;9.876;2022-11-10T11:43:07;21.27;;;9.48;;
56399;SDS011;42298;53.638;9.876;2022-11-10T11:45:39;25.17;;;9.63;;
56399;SDS011;42298;53.638;9.876;2022-11-10T11:51:26;26.20;;;10.18;;
56399;SDS011;42298;53.638;9.876;2022-11-10T11:56:42;17.15;;;8.13;;
56399;SDS011;42298;53.638;9.876;2022-11-10T11:59:34;21.63;;;9.30;;
56399;SDS011;42298;53.638;9.876;2022-11-10T12:04:45;19.00;;;8.50;;
56399;SDS011;42298;53.638;9.876;2022-11-10T12:07:40;17.17;;;7.38;;
56399;SDS011;42298;53.638;9.876;2022-11-10T12:13:13;20.95;;;7.75;;
56399;SDS011;42298;53.638;9.876;2022-11-10T12:18:45;19.35;;;7.75;;
56399;SDS011;42298;53.638;9.876;2022-11-10T12:29:25;17.20;;;7.25;;
56399;SDS011;42298;53.638;9.876;2022-11-10T12:32:01;19.98;;;6.68;;
56399;SDS011;42298;53.638;9.876;2022-11-10T12:34:35;21.58;;;7.25;;
56399;SDS011;42298;53.638;9.876;2022-11-10T12:37:09;17.73;;;6.90;;
56399;SDS011;42298;53.638;9.876;2022-11-10T12:39:42;20.20;;;7.30;;
56399;SDS011;42298;53.638;9.876;2022-11-10T12:42:31;17.35;;;6.88;;
56399;SDS011;42298;53.638;9.876;2022-11-10T12:45:05;16.63;;;6.50;;
56399;SDS011;42298;53.638;9.876;2022-11-10T12:47:40;18.95;;;6.53;;
56399;SDS011;42298;53.638;9.876;2022-11-10T12:50:16;19.73;;;6.60;;
56399;SDS011;42298;53.638;9.876;2022-11-10T12:52:51;16.85;;;6.22;;
56399;SDS011;42298;53.638;9.876;2022-11-10T12:55:26;18.17;;;6.25;;
56399;SDS011;42298;53.638;9.876;2022-11-10T12:58:09;17.45;;;6.38;;
56399;SDS011;42298;53.638;9.876;2022-11-10T13:00:44;16.13;;;6.38;;
56399;SDS011;42298;53.638;9.876;2022-11-10T13:03:36;19.77;;;6.93;;
56399;SDS011;42298;53.638;9.876;2022-11-10T13:06:22;17.00;;;6.43;;
56399;SDS011;42298;53.638;9.876;2022-11-10T13:08:50;17.88;;;6.15;;
56399;SDS011;42298;53.638;9.876;2022-11-10T13:13:45;14.95;;;5.95;;
56399;SDS011;42298;53.638;9.876;2022-11-10T13:19:46;18.05;;;6.40;;
56399;SDS011;42298;53.638;9.876;2022-11-10T13:22:09;17.35;;;6.07;;
56399;SDS011;42298;53.638;9.876;2022-11-10T13:24:36;19.67;;;6.53;;
56399;SDS011;42298;53.638;9.876;2022-11-10T13:27:13;20.88;;;7.32;;
56399;SDS011;42298;53.638;9.876;2022-11-10T13:30:18;19.17;;;6.28;;
56399;SDS011;42298;53.638;9.876;2022-11-10T13:36:03;16.00;;;5.82;;
56399;SDS011;42298;53.638;9.876;2022-11-10T13:38:36;18.67;;;6.45;;
56399;SDS011;42298;53.638;9.876;2022-11-10T13:43:53;17.75;;;5.40;;
56399;SDS011;42298;53.638;9.876;2022-11-10T13:46:22;16.85;;;5.78;;
56399;SDS011;42298;53.638;9.876;2022-11-10T13:49:03;14.15;;;5.15;;
56399;SDS011;42298;53.638;9.876;2022-11-10T13:54:17;18.60;;;4.95;;
56399;SDS011;42298;53.638;9.876;2022-11-10T13:57:16;18.27;;;5.07;;
56399;SDS011;42298;53.638;9.876;2022-11-10T13:59:50;18.58;;;5.13;;
56399;SDS011;42298;53.638;9.876;2022-11-10T14:05:01;15.57;;;4.53;;
56399;SDS011;42298;53.638;9.876;2022-11-10T14:07:29;18.13;;;5.70;;
56399;SDS011;42298;53.638;9.876;2022-11-10T14:10:02;15.23;;;4.65;;
56399;SDS011;42298;53.638;9.876;2022-11-10T14:15:01;16.48;;;4.70;;
56399;SDS011;42298;53.638;9.876;2022-11-10T14:17:34;15.15;;;4.10;;
56399;SDS011;42298;53.638;9.876;2022-11-10T14:20:23;15.57;;;4.68;;
56399;SDS011;42298;53.638;9.876;2022-11-10T14:22:53;19.73;;;5.43;;
56399;SDS011;42298;53.638;9.876;2022-11-10T14:28:22;16.38;;;4.30;;
56399;SDS011;42298;53.638;9.876;2022-11-10T14:30:51;15.90;;;4.22;;
56399;SDS011;42298;53.638;9.876;2022-11-10T14:33:17;14.95;;;4.38;;
56399;SDS011;42298;53.638;9.876;2022-11-10T14:35:46;16.52;;;4.68;;
56399;SDS011;42298;53.638;9.876;2022-11-10T14:40:42;15.48;;;4.22;;
56399;SDS011;42298;53.638;9.876;2022-11-10T14:45:56;16.38;;;3.85;;
56399;SDS011;42298;53.638;9.876;2022-11-10T14:48:23;11.82;;;4.20;;
56399;SDS011;42298;53.638;9.876;2022-11-10T14:50:50;14.57;;;4.18;;
56399;SDS011;42298;53.638;9.876;2022-11-10T14:53:27;17.90;;;4.82;;
56399;SDS011;42298;53.638;9.876;2022-11-10T14:55:57;17.55;;;3.90;;
56399;SDS011;42298;53.638;9.876;2022-11-10T14:58:27;20.30;;;4.35;;
56399;SDS011;42298;53.638;9.876;2022-11-10T15:00:57;14.80;;;4.15;;
56399;SDS011;42298;53.638;9.876;2022-11-10T15:05:59;16.52;;;3.75;;
56399;SDS011;42298;53.638;9.876;2022-11-10T15:08:26;17.75;;;4.32;;
56399;SDS011;42298;53.638;9.876;2022-11-10T15:10:53;18.88;;;4.05;;
56399;SDS011;42298;53.638;9.876;2022-11-10T15:16:37;15.07;;;3.65;;
56399;SDS011;42298;53.638;9.876;2022-11-10T15:18:46;16.88;;;4.20;;
56399;SDS011;42298;53.638;9.876;2022-11-10T15:21:13;17.17;;;3.63;;
56399;SDS011;42298;53.638;9.876;2022-11-10T15:23:41;16.85;;;4.22;;
56399;SDS011;42298;53.638;9.876;2022-11-10T15:26:28;18.30;;;4.15;;
56399;SDS011;42298;53.638;9.876;2022-11-10T15:28:58;15.55;;;4.30;;
56399;SDS011;42298;53.638;9.876;2022-11-10T15:31:25;21.63;;;4.63;;
56399;SDS011;42298;53.638;9.876;2022-11-10T15:34:02;14.57;;;4.22;;
56399;SDS011;42298;53.638;9.876;2022-11-10T15:36:29;14.02;;;3.67;;
56399;SDS011;42298;53.638;9.876;2022-11-10T15:39:14;13.88;;;3.45;;
56399;SDS011;42298;53.638;9.876;2022-11-10T15:41:47;15.65;;;4.30;;
56399;SDS011;42298;53.638;9.876;2022-11-10T15:46:47;15.50;;;4.60;;
56399;SDS011;42298;53.638;9.876;2022-11-10T15:51:48;17.60;;;4.35;;
56399;SDS011;42298;53.638;9.876;2022-11-10T15:54:14;18.30;;;3.83;;
56399;SDS011;42298;53.638;9.876;2022-11-10T15:56:43;12.38;;;4.00;;
56399;SDS011;42298;53.638;9.876;2022-11-10T15:59:09;14.75;;;4.45;;
56399;SDS011;42298;53.638;9.876;2022-11-10T16:01:37;14.25;;;4.53;;
56399;SDS011;42298;53.638;9.876;2022-11-10T16:04:02;26.50;;;5.70;;
56399;SDS011;42298;53.638;9.876;2022-11-10T16:06:27;17.48;;;4.80;;
56399;SDS011;42298;53.638;9.876;2022-11-10T16:08:54;15.60;;;4.78;;